Axtell, Nebraska
Current Conditions -  °F | °C
As of 9:15 PM on Friday 31 Oct 2014 (Local Time) from KHDE Reporting Station
Clear Clear  
Wind Chill: 32°   Ceiling: Unl
Heat Index: 32°   Visibility: 10mi
Dew Point: 15°   Wind: 0mph
Humidity: 49%   Direction: NA
Pressure: 30.36"   Gusts: NA
Location:  40.48°N, 99.13°W
Report Text: KHDE 010215Z AUTO 00000KT 10SM CLR 00/M09 A3036 RMK AO2 T00001095
Loading
Personal Weather Stations






























Interactive Weather Map
Tropical Storm Tracking
New forecast layout! Learn more

10-Day Weather Forecast

Advertisements
Track Severe Weather on mobile